Time;durP1;ratioP1;P1;durP2;ratioP2;P2;SDS_P1;SDS_P2;PMS_P1;PMS_P2;Temp;Humidity;BMP_temperature;BMP_pressure;BME280_temperature;BME280_humidity;BME280_pressure;Samples;Min_cycle;Max_cycle;Signal;HPM_P1;HPM_P2
2023/05/15 00:02:55;;;;;;;;;;;9.10;99.90;;;;;;8227047;28;20414;-86
2023/05/15 00:06:56;;;;;;;;;;;9.00;99.90;;;;;;8233758;28;19917;-85
2023/05/15 00:11:02;;;;;;;;;;;9.00;99.90;;;;;;8231488;28;20363;-85
2023/05/15 00:15:33;;;;;;;;;;;9.00;99.90;;;;;;8230389;28;19914;-85
2023/05/15 00:24:30;;;;;;;;;;;9.20;99.90;;;;;;8224763;28;19910;-85
2023/05/15 00:28:31;;;;;;;;;;;9.10;99.90;;;;;;8242918;28;19964;-85
2023/05/15 00:32:38;;;;;;;;;;;9.10;99.90;;;;;;8243257;28;19917;-86
2023/05/15 00:36:43;;;;;;;;;;;9.20;99.90;;;;;;8238377;28;19914;-85
2023/05/15 00:41:02;;;;;;;;;;;9.20;99.90;;;;;;8225842;28;19968;-85
2023/05/15 00:45:38;;;;;;;;;;;9.20;99.90;;;;;;8220191;28;19910;-86
2023/05/15 00:49:39;;;;;;;;;;;9.20;99.90;;;;;;8236303;28;20005;-85
2023/05/15 00:53:53;;;;;;;;;;;9.40;99.90;;;;;;8238316;28;20001;-85
2023/05/15 00:58:07;;;;;;;;;;;9.40;99.90;;;;;;8230388;28;19956;-85
2023/05/15 01:02:18;;;;;;;;;;;9.30;99.90;;;;;;8226178;28;19919;-85
2023/05/15 01:06:19;;;;;;;;;;;9.30;99.90;;;;;;8234856;28;19914;-85
2023/05/15 01:10:20;;;;;;;;;;;9.40;99.90;;;;;;8239169;28;19925;-85
2023/05/15 01:14:22;;;;;;;;;;;9.30;99.90;;;;;;8234230;28;19974;-85
2023/05/15 01:18:38;;;;;;;;;;;9.20;99.90;;;;;;8235569;28;19976;-85
2023/05/15 01:23:03;;;;;;;;;;;9.20;99.90;;;;;;8225340;28;19919;-85
2023/05/15 01:27:32;;;;;;;;;;;9.20;99.90;;;;;;8236459;28;19910;-85
2023/05/15 01:31:34;;;;;;;;;;;9.00;99.90;;;;;;8211824;28;19977;-86
2023/05/15 01:35:42;;;;;;;;;;;9.00;99.90;;;;;;8221743;28;19910;-85
2023/05/15 01:39:52;;;;;;;;;;;9.20;99.90;;;;;;8232388;28;20550;-86
2023/05/15 01:44:21;;;;;;;;;;;9.10;99.90;;;;;;8231904;28;20485;-85
2023/05/15 01:48:24;;;;;;;;;;;9.30;99.90;;;;;;8239150;28;20004;-85
2023/05/15 01:52:33;;;;;;;;;;;9.40;99.90;;;;;;8234571;28;19911;-86
2023/05/15 01:56:42;;;;;;;;;;;9.60;99.90;;;;;;8240885;28;19918;-85
2023/05/15 02:00:43;;;;;;;;;;;9.50;99.90;;;;;;8187042;28;19922;-85
2023/05/15 02:05:04;;;;;;;;;;;9.30;99.90;;;;;;8186085;28;19910;-85
2023/05/15 02:09:25;;;;;;;;;;;9.50;99.90;;;;;;8189759;28;19961;-84
2023/05/15 02:13:26;;;;;;;;;;;9.20;99.90;;;;;;8233982;28;19914;-85
2023/05/15 02:17:35;;;;;;;;;;;9.40;99.90;;;;;;8224293;28;19965;-84
2023/05/15 02:21:48;;;;;;;;;;;9.20;99.90;;;;;;8190380;28;19914;-85
2023/05/15 02:25:57;;;;;;;;;;;9.30;99.90;;;;;;8228192;28;19930;-85
2023/05/15 02:29:58;;;;;;;;;;;9.30;99.90;;;;;;8235943;28;19930;-85
2023/05/15 02:34:14;;;;;;;;;;;9.10;99.90;;;;;;8230359;28;19914;-84
2023/05/15 02:38:17;;;;;;;;;;;9.10;99.90;;;;;;8224689;28;19911;-84
2023/05/15 02:42:18;;;;;;;;;;;9.20;99.90;;;;;;8236534;28;19918;-82
2023/05/15 02:46:20;;;;;;;;;;;9.20;99.90;;;;;;8230971;28;19957;-82
2023/05/15 02:50:26;;;;;;;;;;;9.10;99.90;;;;;;8235037;28;20282;-82
2023/05/15 02:54:27;;;;;;;;;;;9.10;99.90;;;;;;8223123;28;19922;-83
2023/05/15 02:58:28;;;;;;;;;;;9.00;99.90;;;;;;8228631;28;19917;-82
2023/05/15 03:02:29;;;;;;;;;;;8.90;99.90;;;;;;8222260;28;20000;-82
2023/05/15 03:06:30;;;;;;;;;;;8.80;99.90;;;;;;8223761;28;19914;-82
2023/05/15 03:10:34;;;;;;;;;;;8.60;99.90;;;;;;8230687;28;19910;-82
2023/05/15 03:14:34;;;;;;;;;;;8.40;99.90;;;;;;8216626;28;20282;-82
2023/05/15 03:18:35;;;;;;;;;;;8.20;99.90;;;;;;8226429;28;19910;-83
2023/05/15 03:22:36;;;;;;;;;;;7.90;99.90;;;;;;8233551;28;19918;-83
2023/05/15 03:26:39;;;;;;;;;;;8.10;99.90;;;;;;8229738;28;19956;-82
2023/05/15 03:30:42;;;;;;;;;;;8.10;99.90;;;;;;8229699;28;19926;-83
2023/05/15 03:34:49;;;;;;;;;;;8.20;99.90;;;;;;8229824;28;19933;-82
2023/05/15 03:38:52;;;;;;;;;;;8.50;99.90;;;;;;8241048;28;19918;-83
2023/05/15 03:42:57;;;;;;;;;;;8.60;99.90;;;;;;8228751;28;19918;-81
2023/05/15 03:47:00;;;;;;;;;;;8.40;99.90;;;;;;8226772;28;19915;-82
2023/05/15 03:51:03;;;;;;;;;;;8.40;99.90;;;;;;8231684;28;19938;-83
2023/05/15 03:55:27;;;;;;;;;;;8.50;99.90;;;;;;8216928;28;19921;-84
2023/05/15 03:59:33;;;;;;;;;;;8.60;99.90;;;;;;8239821;28;19933;-85
2023/05/15 04:03:37;;;;;;;;;;;8.60;99.90;;;;;;8237147;28;19910;-84
2023/05/15 04:12:28;;;;;;;;;;;8.50;99.90;;;;;;8243304;28;19917;-85
2023/05/15 04:16:29;;;;;;;;;;;8.30;99.90;;;;;;8239815;28;19914;-85
2023/05/15 04:20:37;;;;;;;;;;;8.30;99.90;;;;;;8239086;28;19939;-84
2023/05/15 04:24:38;;;;;;;;;;;8.30;99.90;;;;;;8203419;28;20468;-84
2023/05/15 04:28:41;;;;;;;;;;;8.40;99.90;;;;;;8219887;28;19914;-82
2023/05/15 04:32:50;;;;;;;;;;;8.30;99.90;;;;;;8231779;28;19952;-81
2023/05/15 04:36:56;;;;;;;;;;;8.60;99.90;;;;;;8231579;28;19914;-82
2023/05/15 04:40:56;;;;;;;;;;;9.10;99.90;;;;;;8219222;28;19918;-82
2023/05/15 04:45:29;;;;;;;;;;;9.20;99.90;;;;;;8213671;28;19914;-82
2023/05/15 04:49:33;;;;;;;;;;;9.50;99.90;;;;;;8220191;28;20001;-82
2023/05/15 04:53:40;;;;;;;;;;;9.50;99.90;;;;;;8231769;28;19921;-81
2023/05/15 04:57:46;;;;;;;;;;;9.60;99.90;;;;;;8236525;28;19910;-82
2023/05/15 05:01:56;;;;;;;;;;;9.70;99.90;;;;;;8233165;28;19921;-81
2023/05/15 05:06:03;;;;;;;;;;;9.80;99.90;;;;;;8222397;28;19914;-81
2023/05/15 05:10:04;;;;;;;;;;;9.70;99.90;;;;;;8217199;28;20008;-82
2023/05/15 05:14:08;;;;;;;;;;;9.70;99.90;;;;;;8231222;28;19914;-82
2023/05/15 05:18:09;;;;;;;;;;;9.70;99.90;;;;;;8227147;28;19988;-82
2023/05/15 05:22:10;;;;;;;;;;;9.70;99.90;;;;;;8231844;28;20000;-82
2023/05/15 05:26:11;;;;;;;;;;;9.80;99.90;;;;;;8216226;28;19922;-82
2023/05/15 05:30:15;;;;;;;;;;;10.00;99.90;;;;;;8210524;28;19997;-82
2023/05/15 05:34:18;;;;;;;;;;;10.30;99.90;;;;;;8233860;28;19918;-80
2023/05/15 05:38:36;;;;;;;;;;;10.50;99.90;;;;;;8228894;28;19918;-81
2023/05/15 05:42:42;;;;;;;;;;;10.50;99.90;;;;;;8236924;28;20315;-81
2023/05/15 05:46:49;;;;;;;;;;;10.70;99.90;;;;;;8216126;28;19914;-82
2023/05/15 05:50:57;;;;;;;;;;;10.90;99.90;;;;;;8222071;28;19918;-82
2023/05/15 05:55:25;;;;;;;;;;;11.00;99.90;;;;;;8233325;28;19997;-81
2023/05/15 05:59:25;;;;;;;;;;;11.30;99.90;;;;;;8219318;28;19942;-82
2023/05/15 06:03:38;;;;;;;;;;;11.10;99.90;;;;;;8220182;28;20378;-82
2023/05/15 06:07:51;;;;;;;;;;;11.10;99.90;;;;;;8218810;28;19910;-82
2023/05/15 06:12:07;;;;;;;;;;;11.40;99.90;;;;;;8222245;28;19979;-81
2023/05/15 06:16:10;;;;;;;;;;;11.30;99.90;;;;;;8212884;28;19926;-81
2023/05/15 06:20:17;;;;;;;;;;;11.50;99.90;;;;;;8225172;28;19922;-81
2023/05/15 06:24:24;;;;;;;;;;;11.20;99.90;;;;;;8214190;28;19918;-82
2023/05/15 06:28:25;;;;;;;;;;;11.10;99.90;;;;;;8224390;28;19918;-81
2023/05/15 06:32:29;;;;;;;;;;;11.10;99.90;;;;;;8212822;28;20025;-82
2023/05/15 06:36:42;;;;;;;;;;;11.20;99.90;;;;;;8229766;28;19914;-82
2023/05/15 06:40:42;;;;;;;;;;;11.70;99.90;;;;;;8230704;28;19918;-81
2023/05/15 06:44:49;;;;;;;;;;;11.60;99.90;;;;;;8218547;28;19954;-81
2023/05/15 06:48:56;;;;;;;;;;;11.40;99.90;;;;;;8223478;28;19921;-81
2023/05/15 06:52:57;;;;;;;;;;;11.10;99.90;;;;;;8228178;28;19914;-82
2023/05/15 06:56:57;;;;;;;;;;;11.10;99.90;;;;;;8223657;28;19921;-82
2023/05/15 07:01:13;;;;;;;;;;;11.20;99.90;;;;;;8213051;28;20295;-82
2023/05/15 07:05:17;;;;;;;;;;;11.10;99.90;;;;;;8214250;28;20375;-82
2023/05/15 07:09:24;;;;;;;;;;;11.00;99.90;;;;;;8215650;28;19948;-82
2023/05/15 07:13:40;;;;;;;;;;;;;;;;;;;;;
2023/05/15 07:18:10;;;;;;;;;;;11.20;99.90;;;;;;8219157;28;19915;-82
2023/05/15 07:22:14;;;;;;;;;;;11.30;99.90;;;;;;8212835;28;19961;-82
2023/05/15 07:26:28;;;;;;;;;;;11.60;99.90;;;;;;8229814;28;19914;-82
2023/05/15 07:30:28;;;;;;;;;;;11.90;99.90;;;;;;8218313;28;20394;-83
2023/05/15 07:34:58;;;;;;;;;;;12.30;99.90;;;;;;8209659;28;19969;-83
2023/05/15 07:39:36;;;;;;;;;;;12.80;99.90;;;;;;8141022;29;19911;-82
2023/05/15 07:43:40;;;;;;;;;;;12.80;99.90;;;;;;8133490;29;20286;-83
2023/05/15 07:47:47;;;;;;;;;;;13.10;99.90;;;;;;8163860;28;19996;-82
2023/05/15 07:56:40;;;;;;;;;;;13.50;99.90;;;;;;8232214;28;19921;-82
2023/05/15 08:00:46;;;;;;;;;;;13.80;99.90;;;;;;8226694;28;19921;-84
2023/05/15 08:04:51;;;;;;;;;;;14.00;99.90;;;;;;8206536;28;19910;-84
2023/05/15 08:08:54;;;;;;;;;;;14.30;99.90;;;;;;8232922;28;20008;-84
2023/05/15 08:13:48;;;;;;;;;;;14.60;99.90;;;;;;8212606;28;19926;-84
2023/05/15 08:17:42;;;;;;;;;;;14.80;99.90;;;;;;8214056;28;19937;-83
2023/05/15 08:26:32;;;;;;;;;;;15.40;99.90;;;;;;8199520;28;20382;-83
2023/05/15 08:31:01;;;;;;;;;;;16.60;99.90;;;;;;8231044;28;19910;-84
2023/05/15 08:35:04;;;;;;;;;;;16.90;99.90;;;;;;8225171;28;19918;-83
2023/05/15 08:43:54;;;;;;;;;;;18.30;99.90;;;;;;8227370;28;20410;-82
2023/05/15 08:48:24;;;;;;;;;;;18.60;99.90;;;;;;8234446;28;20394;-81
2023/05/15 08:52:33;;;;;;;;;;;18.00;99.90;;;;;;8232268;28;19914;-82
2023/05/15 08:56:40;;;;;;;;;;;17.90;99.90;;;;;;8228414;28;19917;-82
2023/05/15 09:00:40;;;;;;;;;;;17.70;99.90;;;;;;8221605;28;19922;-82
2023/05/15 09:04:44;;;;;;;;;;;18.20;99.90;;;;;;8223486;28;19964;-82
2023/05/15 09:09:12;;;;;;;;;;;18.70;99.90;;;;;;8216348;28;20403;-82
2023/05/15 09:13:18;;;;;;;;;;;18.90;99.90;;;;;;8234764;28;19974;-82
2023/05/15 09:17:19;;;;;;;;;;;18.40;99.90;;;;;;8215342;28;19914;-82
2023/05/15 09:21:20;;;;;;;;;;;17.30;99.90;;;;;;8230908;28;20452;-82
2023/05/15 09:25:41;;;;;;;;;;;16.50;99.90;;;;;;8231750;28;19921;-82
2023/05/15 09:29:42;;;;;;;;;;;15.50;99.90;;;;;;8233594;28;19914;-80
2023/05/15 09:33:43;;;;;;;;;;;14.70;99.90;;;;;;8239578;28;20295;-81
2023/05/15 09:37:43;;;;;;;;;;;14.20;99.90;;;;;;8229112;28;19914;-82
2023/05/15 09:41:47;;;;;;;;;;;13.90;99.90;;;;;;8232400;28;20390;-82
2023/05/15 09:45:48;;;;;;;;;;;13.70;99.90;;;;;;8221988;28;19925;-82
2023/05/15 09:49:48;;;;;;;;;;;13.90;99.90;;;;;;8233894;28;20009;-81
2023/05/15 09:53:52;;;;;;;;;;;14.70;99.90;;;;;;8228026;28;19961;-82
2023/05/15 09:58:06;;;;;;;;;;;16.10;99.90;;;;;;8230627;28;20078;-82
2023/05/15 10:02:07;;;;;;;;;;;17.60;99.90;;;;;;8232488;28;19918;-81
2023/05/15 10:06:16;;;;;;;;;;;18.30;99.90;;;;;;8232564;28;19914;-82
2023/05/15 10:10:17;;;;;;;;;;;18.60;99.90;;;;;;8224530;28;19987;-81
2023/05/15 10:14:21;;;;;;;;;;;18.90;99.90;;;;;;8219831;28;19922;-82
2023/05/15 10:18:25;;;;;;;;;;;19.80;99.90;;;;;;8227732;28;20288;-81
2023/05/15 10:22:31;;;;;;;;;;;20.40;99.90;;;;;;8217500;28;19926;-80
2023/05/15 10:26:50;;;;;;;;;;;20.10;99.90;;;;;;8233589;28;19914;-81
2023/05/15 10:30:51;;;;;;;;;;;19.90;99.90;;;;;;8222343;28;19949;-82
2023/05/15 10:34:53;;;;;;;;;;;19.90;99.90;;;;;;8232060;28;20295;-81
2023/05/15 10:38:53;;;;;;;;;;;21.00;99.90;;;;;;8215810;28;19910;-81
2023/05/15 10:42:54;;;;;;;;;;;21.10;99.90;;;;;;8216311;28;20449;-80
2023/05/15 10:46:55;;;;;;;;;;;21.20;99.90;;;;;;8218910;28;19914;-81
2023/05/15 10:51:01;;;;;;;;;;;20.70;99.90;;;;;;8235018;28;19910;-82
2023/05/15 10:55:04;;;;;;;;;;;20.70;99.90;;;;;;8211960;28;19914;-81
2023/05/15 10:59:06;;;;;;;;;;;21.50;99.90;;;;;;8214219;28;19957;-81
2023/05/15 11:03:07;;;;;;;;;;;20.50;99.90;;;;;;8226830;28;20291;-81
2023/05/15 11:07:12;;;;;;;;;;;20.00;99.90;;;;;;8228524;28;19915;-82
2023/05/15 11:11:34;;;;;;;;;;;19.40;99.90;;;;;;8224189;28;19914;-81
2023/05/15 11:15:43;;;;;;;;;;;19.30;99.90;;;;;;8219704;28;19969;-81
2023/05/15 11:19:52;;;;;;;;;;;20.50;99.90;;;;;;8226755;28;19925;-81
2023/05/15 11:24:11;;;;;;;;;;;21.50;99.90;;;;;;8226597;28;19921;-82
2023/05/15 11:28:20;;;;;;;;;;;22.20;99.90;;;;;;8226737;28;19914;-81
2023/05/15 11:32:30;;;;;;;;;;;22.00;99.90;;;;;;8230779;28;20021;-81
2023/05/15 11:36:32;;;;;;;;;;;21.60;99.90;;;;;;8220544;28;19914;-81
2023/05/15 11:40:46;;;;;;;;;;;22.20;99.90;;;;;;8223227;28;19965;-82
2023/05/15 11:44:46;;;;;;;;;;;22.60;99.90;;;;;;8226081;28;20395;-81
2023/05/15 11:48:51;;;;;;;;;;;22.10;99.90;;;;;;8225509;28;19929;-82
2023/05/15 11:52:52;;;;;;;;;;;22.50;99.90;;;;;;8223136;28;20252;-81
2023/05/15 11:56:56;;;;;;;;;;;23.80;99.90;;;;;;8211661;28;19918;-81
2023/05/15 12:01:02;;;;;;;;;;;23.20;99.90;;;;;;8226430;28;19922;-81
2023/05/15 12:05:05;;;;;;;;;;;23.30;99.90;;;;;;8221650;28;20012;-81
2023/05/15 12:09:11;;;;;;;;;;;23.00;99.90;;;;;;8232346;28;19910;-82
2023/05/15 12:13:19;;;;;;;;;;;23.70;99.90;;;;;;8223069;28;19920;-82
2023/05/15 12:17:20;;;;;;;;;;;24.70;99.90;;;;;;8203096;28;19918;-82
2023/05/15 12:21:20;;;;;;;;;;;25.40;99.90;;;;;;8235698;28;19918;-81
2023/05/15 12:25:21;;;;;;;;;;;25.60;99.90;;;;;;8217548;28;19952;-82
2023/05/15 12:29:21;;;;;;;;;;;25.80;99.90;;;;;;8229799;28;19914;-82
2023/05/15 12:33:22;;;;;;;;;;;25.30;99.30;;;;;;8218971;28;19933;-81
2023/05/15 12:37:23;;;;;;;;;;;25.60;97.90;;;;;;8233205;28;20315;-81
2023/05/15 12:41:55;;;;;;;;;;;26.50;95.10;;;;;;8231971;28;20388;-80
2023/05/15 12:45:56;;;;;;;;;;;26.30;95.40;;;;;;8221218;28;19957;-80
2023/05/15 12:50:00;;;;;;;;;;;26.20;95.80;;;;;;8229635;28;19925;-82
2023/05/15 12:54:03;;;;;;;;;;;26.50;96.10;;;;;;8226859;28;19926;-81
2023/05/15 12:58:11;;;;;;;;;;;27.10;87.90;;;;;;8225543;28;19915;-82
2023/05/15 13:02:12;;;;;;;;;;;26.00;90.80;;;;;;8224925;28;20394;-81
2023/05/15 13:06:15;;;;;;;;;;;23.20;96.30;;;;;;8236418;28;19911;-81
2023/05/15 13:10:19;;;;;;;;;;;21.50;99.90;;;;;;8236588;28;19914;-81
2023/05/15 13:14:20;;;;;;;;;;;20.10;99.90;;;;;;8235870;28;20383;-81
2023/05/15 13:18:22;;;;;;;;;;;20.90;99.90;;;;;;8227897;28;19919;-81
2023/05/15 13:22:23;;;;;;;;;;;21.10;99.90;;;;;;8232036;28;19965;-81
2023/05/15 13:26:27;;;;;;;;;;;20.70;99.90;;;;;;8224272;28;19968;-81
2023/05/15 13:30:31;;;;;;;;;;;19.80;99.90;;;;;;8215171;28;19914;-81
2023/05/15 13:34:34;;;;;;;;;;;19.00;99.90;;;;;;8231896;28;19918;-81
2023/05/15 13:38:38;;;;;;;;;;;18.40;99.90;;;;;;8233292;28;20273;-81
2023/05/15 13:42:39;;;;;;;;;;;18.00;99.90;;;;;;8234712;28;20279;-81
2023/05/15 13:46:42;;;;;;;;;;;18.10;99.90;;;;;;8232553;28;20009;-81
2023/05/15 13:50:44;;;;;;;;;;;18.50;99.90;;;;;;8228903;28;20368;-81
2023/05/15 13:54:45;;;;;;;;;;;18.30;99.90;;;;;;8230523;28;19910;-81
2023/05/15 13:58:45;;;;;;;;;;;18.30;99.90;;;;;;8225836;28;19926;-81
2023/05/15 14:02:49;;;;;;;;;;;18.20;99.90;;;;;;8211837;28;19926;-81
2023/05/15 14:06:52;;;;;;;;;;;18.50;99.90;;;;;;8225461;28;19914;-83
2023/05/15 14:11:00;;;;;;;;;;;18.80;99.90;;;;;;8211039;28;19921;-81
2023/05/15 14:15:01;;;;;;;;;;;19.70;99.90;;;;;;8218627;28;20282;-81
2023/05/15 14:19:05;;;;;;;;;;;20.70;99.90;;;;;;8215186;28;19925;-81
2023/05/15 14:23:09;;;;;;;;;;;20.40;99.90;;;;;;8214904;28;20402;-82
2023/05/15 14:27:09;;;;;;;;;;;20.50;99.90;;;;;;8210647;28;19921;-81
2023/05/15 14:31:10;;;;;;;;;;;20.30;99.90;;;;;;8226955;28;19965;-80
2023/05/15 14:35:14;;;;;;;;;;;20.60;99.90;;;;;;8226864;28;20399;-81
2023/05/15 14:39:17;;;;;;;;;;;21.00;99.90;;;;;;8226768;28;19914;-82
2023/05/15 14:43:23;;;;;;;;;;;24.30;99.90;;;;;;8238458;28;20001;-82
2023/05/15 14:47:30;;;;;;;;;;;28.20;93.40;;;;;;8231662;28;19944;-84
2023/05/15 14:51:58;;;;;;;;;;;29.80;81.50;;;;;;8235688;28;20000;-85
2023/05/15 14:56:02;;;;;;;;;;;26.00;87.30;;;;;;8244381;28;19960;-84
2023/05/15 15:00:15;;;;;;;;;;;23.40;92.70;;;;;;8230213;28;19915;-85
2023/05/15 15:08:45;;;;;;;;;;;20.50;99.90;;;;;;8237030;28;19922;-84
2023/05/15 15:13:22;;;;;;;;;;;19.30;99.90;;;;;;8219159;28;19921;-86
2023/05/15 15:17:57;;;;;;;;;;;18.80;99.90;;;;;;8143086;29;19911;-85
2023/05/15 15:22:36;;;;;;;;;;;17.70;99.90;;;;;;8064435;29;20440;-85
2023/05/15 15:26:58;;;;;;;;;;;17.10;99.90;;;;;;7982097;29;20394;-85
2023/05/15 15:30:59;;;;;;;;;;;16.50;99.90;;;;;;8077843;29;19919;-85
2023/05/15 15:35:03;;;;;;;;;;;16.30;99.90;;;;;;8145236;28;19925;-85
2023/05/15 15:39:42;;;;;;;;;;;;;;;;;;;;;
2023/05/15 15:43:43;;;;;;;;;;;15.60;99.90;;;;;;8234286;28;19918;-86
2023/05/15 15:48:04;;;;;;;;;;;14.60;99.90;;;;;;8233628;28;19956;-86
2023/05/15 15:52:07;;;;;;;;;;;14.00;99.90;;;;;;8236047;28;19913;-86
2023/05/15 15:56:40;;;;;;;;;;;;;;;;;;;;;
2023/05/15 16:00:46;;;;;;;;;;;12.90;99.90;;;;;;8262085;28;20132;-86
2023/05/15 16:04:53;;;;;;;;;;;12.90;99.90;;;;;;8250803;28;19918;-84
2023/05/15 16:08:57;;;;;;;;;;;12.80;99.90;;;;;;8254883;28;19913;-84
2023/05/15 16:13:00;;;;;;;;;;;13.00;99.90;;;;;;8247922;28;19949;-85
2023/05/15 16:17:09;;;;;;;;;;;12.90;99.90;;;;;;8240622;28;19928;-86
2023/05/15 16:25:36;;;;;;;;;;;13.20;99.90;;;;;;8236700;28;19910;-86
2023/05/15 16:29:49;;;;;;;;;;;13.10;99.90;;;;;;8244546;28;19957;-85
2023/05/15 16:35:09;;;;;;;;;;;13.30;99.90;;;;;;8236875;28;19918;-86
2023/05/15 16:43:23;;;;;;;;;;;14.20;99.90;;;;;;8242986;28;19918;-85
2023/05/15 16:47:26;;;;;;;;;;;14.70;99.90;;;;;;8240421;28;20360;-86
2023/05/15 16:51:33;;;;;;;;;;;14.70;99.90;;;;;;8233947;28;19965;-85
2023/05/15 16:55:44;;;;;;;;;;;14.50;99.90;;;;;;8235678;28;19925;-86
2023/05/15 16:59:44;;;;;;;;;;;14.20;99.90;;;;;;8252949;28;19924;-85
2023/05/15 17:03:48;;;;;;;;;;;13.80;99.90;;;;;;8248792;28;19949;-84
2023/05/15 17:07:49;;;;;;;;;;;13.40;99.90;;;;;;8251315;28;20082;-84
2023/05/15 17:12:16;;;;;;;;;;;13.20;99.90;;;;;;8245783;28;20173;-86
2023/05/15 17:16:28;;;;;;;;;;;13.10;99.90;;;;;;8239879;28;20319;-85
2023/05/15 17:20:35;;;;;;;;;;;12.90;99.90;;;;;;8249846;28;19918;-84
2023/05/15 17:24:53;;;;;;;;;;;12.50;99.90;;;;;;8242293;28;20284;-85
2023/05/15 17:29:02;;;;;;;;;;;12.50;99.90;;;;;;8243351;28;19973;-84
2023/05/15 17:33:03;;;;;;;;;;;12.70;99.90;;;;;;8239307;28;19943;-84
2023/05/15 17:37:14;;;;;;;;;;;;;;;;;;;;;
2023/05/15 17:41:17;;;;;;;;;;;12.70;99.90;;;;;;8244632;28;19922;-86
2023/05/15 17:45:23;;;;;;;;;;;12.70;99.90;;;;;;8241831;28;20386;-84
2023/05/15 17:49:25;;;;;;;;;;;13.00;99.90;;;;;;8241631;28;19911;-86
2023/05/15 17:53:54;;;;;;;;;;;11.50;99.90;;;;;;8254849;28;20265;-85
2023/05/15 17:58:10;;;;;;;;;;;12.20;99.90;;;;;;8220404;28;19914;-84
2023/05/15 18:02:11;;;;;;;;;;;12.30;99.90;;;;;;8218066;28;19961;-86
2023/05/15 18:06:20;;;;;;;;;;;12.30;99.90;;;;;;8242927;28;19914;-85
2023/05/15 18:10:28;;;;;;;;;;;12.10;99.90;;;;;;8242387;28;19917;-84
2023/05/15 18:14:34;;;;;;;;;;;12.10;99.90;;;;;;8243703;28;19914;-86
2023/05/15 18:18:38;;;;;;;;;;;11.90;99.90;;;;;;8220955;28;19914;-84
2023/05/15 18:22:39;;;;;;;;;;;11.90;99.90;;;;;;8235514;28;20246;-86
2023/05/15 18:26:43;;;;;;;;;;;11.80;99.90;;;;;;8245051;28;19910;-84
2023/05/15 18:35:13;;;;;;;;;;;11.60;99.90;;;;;;8247147;28;19937;-84
2023/05/15 18:39:14;;;;;;;;;;;12.00;99.90;;;;;;8243137;28;19938;-84
2023/05/15 18:43:24;;;;;;;;;;;11.90;99.90;;;;;;8248531;28;19954;-84
2023/05/15 18:47:27;;;;;;;;;;;11.70;99.90;;;;;;8244185;28;20383;-84
2023/05/15 18:51:29;;;;;;;;;;;12.70;99.90;;;;;;8245368;28;19918;-86
2023/05/15 18:55:33;;;;;;;;;;;11.60;99.90;;;;;;8243806;28;19918;-84
2023/05/15 18:59:33;;;;;;;;;;;11.30;99.90;;;;;;8224154;28;19933;-84
2023/05/15 19:03:44;;;;;;;;;;;10.90;99.90;;;;;;8222217;28;19918;-86
2023/05/15 19:07:48;;;;;;;;;;;11.40;99.90;;;;;;8233232;28;20029;-85
2023/05/15 19:11:51;;;;;;;;;;;10.70;99.90;;;;;;8237799;28;20292;-85
2023/05/15 19:15:51;;;;;;;;;;;10.30;99.90;;;;;;8237935;28;19911;-85
2023/05/15 19:20:13;;;;;;;;;;;9.80;99.90;;;;;;8241088;28;19978;-86
2023/05/15 19:24:25;;;;;;;;;;;9.40;99.90;;;;;;8250140;28;20363;-86
2023/05/15 19:28:26;;;;;;;;;;;8.90;99.90;;;;;;8244684;28;19933;-85
2023/05/15 19:32:30;;;;;;;;;;;9.20;99.90;;;;;;8238353;28;20295;-85
2023/05/15 19:36:30;;;;;;;;;;;9.20;99.90;;;;;;8248681;28;19930;-85
2023/05/15 19:40:31;;;;;;;;;;;9.80;99.90;;;;;;8246085;28;19930;-85
2023/05/15 19:45:10;;;;;;;;;;;8.90;99.90;;;;;;8248860;28;19914;-85
2023/05/15 19:49:19;;;;;;;;;;;9.00;99.90;;;;;;8201261;28;19919;-85
2023/05/15 19:53:30;;;;;;;;;;;9.20;99.90;;;;;;8252565;28;20264;-84
2023/05/15 19:57:33;;;;;;;;;;;9.50;99.90;;;;;;8239319;28;19958;-87
2023/05/15 20:01:37;;;;;;;;;;;9.60;99.90;;;;;;8240950;28;19915;-85
2023/05/15 20:06:01;;;;;;;;;;;9.30;99.90;;;;;;8237887;28;20394;-86
2023/05/15 20:10:04;;;;;;;;;;;9.20;99.90;;;;;;8232711;28;19918;-86
2023/05/15 20:14:05;;;;;;;;;;;9.50;99.90;;;;;;8240828;28;20303;-85
2023/05/15 20:18:06;;;;;;;;;;;9.30;99.90;;;;;;8232388;28;19914;-85
2023/05/15 20:22:32;;;;;;;;;;;10.00;99.90;;;;;;8225491;28;19940;-85
2023/05/15 20:26:34;;;;;;;;;;;9.10;99.90;;;;;;8231465;28;19921;-85
2023/05/15 20:30:37;;;;;;;;;;;9.20;99.90;;;;;;8240290;28;19914;-86
2023/05/15 20:34:44;;;;;;;;;;;9.50;99.90;;;;;;8240192;28;19972;-85
2023/05/15 20:39:06;;;;;;;;;;;10.10;99.90;;;;;;8245002;28;19914;-85
2023/05/15 20:43:12;;;;;;;;;;;10.10;99.90;;;;;;8242120;28;19925;-84
2023/05/15 20:47:25;;;;;;;;;;;10.80;99.90;;;;;;8235444;28;19914;-85
2023/05/15 20:51:28;;;;;;;;;;;10.50;99.90;;;;;;8231430;28;19914;-85
2023/05/15 21:00:04;;;;;;;;;;;10.10;99.90;;;;;;8236710;28;19915;-85
2023/05/15 21:04:08;;;;;;;;;;;10.00;99.90;;;;;;8249039;28;19921;-86
2023/05/15 21:08:27;;;;;;;;;;;10.20;99.90;;;;;;8233620;28;20348;-87
2023/05/15 21:12:31;;;;;;;;;;;10.10;99.90;;;;;;8252836;28;19910;-85
2023/05/15 21:16:35;;;;;;;;;;;9.70;99.90;;;;;;8224452;28;19973;-85
2023/05/15 21:20:45;;;;;;;;;;;9.90;99.90;;;;;;8240318;28;19918;-85
2023/05/15 21:24:51;;;;;;;;;;;9.70;99.90;;;;;;8241719;28;19910;-85
2023/05/15 21:29:19;;;;;;;;;;;9.60;99.90;;;;;;8250397;28;19914;-86
2023/05/15 21:33:33;;;;;;;;;;;9.70;99.90;;;;;;8245151;28;19934;-85
2023/05/15 21:37:44;;;;;;;;;;;9.90;99.90;;;;;;8243881;28;20008;-85
2023/05/15 21:42:03;;;;;;;;;;;10.10;99.90;;;;;;8240588;28;19914;-85
2023/05/15 21:47:03;;;;;;;;;;;;;;;;;;;;;
2023/05/15 21:51:23;;;;;;;;;;;9.70;99.90;;;;;;8223974;28;19925;-85
2023/05/15 21:55:30;;;;;;;;;;;10.40;99.90;;;;;;8234961;28;20039;-85
2023/05/15 21:59:34;;;;;;;;;;;9.80;99.90;;;;;;8245008;28;19917;-86
2023/05/15 22:03:52;;;;;;;;;;;10.20;99.90;;;;;;8235165;28;19997;-85
2023/05/15 22:07:59;;;;;;;;;;;10.60;99.90;;;;;;8250289;28;19910;-85
2023/05/15 22:12:00;;;;;;;;;;;10.30;99.90;;;;;;8235858;28;20008;-85
2023/05/15 22:16:14;;;;;;;;;;;9.70;99.90;;;;;;8224048;28;19921;-85
2023/05/15 22:20:28;;;;;;;;;;;10.60;99.90;;;;;;8215549;28;19921;-86
2023/05/15 22:24:39;;;;;;;;;;;10.30;99.90;;;;;;8225476;28;19911;-84
2023/05/15 22:29:15;;;;;;;;;;;10.00;99.90;;;;;;8231819;28;19910;-85
2023/05/15 22:33:29;;;;;;;;;;;9.20;99.90;;;;;;8133680;29;20010;-87
2023/05/15 22:37:44;;;;;;;;;;;8.80;99.90;;;;;;8200165;28;19946;-85
2023/05/15 22:42:22;;;;;;;;;;;9.50;99.90;;;;;;8225268;28;19914;-85
2023/05/15 22:46:35;;;;;;;;;;;8.10;99.90;;;;;;8223011;28;19969;-84
2023/05/15 22:50:40;;;;;;;;;;;8.00;99.90;;;;;;8235468;28;20024;-85
2023/05/15 22:55:01;;;;;;;;;;;8.10;99.90;;;;;;8241567;28;20424;-85
2023/05/15 22:59:29;;;;;;;;;;;7.90;99.90;;;;;;8217666;28;19914;-85
2023/05/15 23:03:58;;;;;;;;;;;8.00;99.90;;;;;;8237642;28;19918;-86
2023/05/15 23:08:25;;;;;;;;;;;7.60;99.90;;;;;;8239089;28;19910;-84
2023/05/15 23:12:38;;;;;;;;;;;7.60;99.90;;;;;;8219865;28;19915;-84
2023/05/15 23:16:51;;;;;;;;;;;7.60;99.90;;;;;;8237930;28;20256;-84
2023/05/15 23:21:18;;;;;;;;;;;8.10;99.90;;;;;;8241869;28;19918;-85
2023/05/15 23:25:47;;;;;;;;;;;8.20;99.90;;;;;;8236616;28;20295;-86
2023/05/15 23:30:14;;;;;;;;;;;7.50;99.90;;;;;;8224236;28;19914;-84
2023/05/15 23:34:21;;;;;;;;;;;7.00;99.90;;;;;;8227555;28;19914;-85
2023/05/15 23:39:00;;;;;;;;;;;7.80;99.90;;;;;;8235195;28;19929;-84
2023/05/15 23:43:06;;;;;;;;;;;7.50;99.90;;;;;;8238948;28;19921;-85
2023/05/15 23:47:10;;;;;;;;;;;7.20;99.90;;;;;;8227406;28;20303;-85
2023/05/15 23:51:16;;;;;;;;;;;7.70;99.90;;;;;;8238435;28;20395;-84
2023/05/15 23:59:56;;;;;;;;;;;6.10;99.90;;;;;;8227917;28;19918;-85
